sensor_id;sensor_type;location;lat;lon;timestamp;P1;durP1;ratioP1;P2;durP2;ratioP2
60919;SDS011;59039;52.108;19.942;2022-08-01T00:00:45;8.00;;;6.10;;
60919;SDS011;59039;52.108;19.942;2022-08-01T00:03:13;10.60;;;6.00;;
60919;SDS011;59039;52.108;19.942;2022-08-01T00:05:41;11.30;;;6.70;;
60919;SDS011;59039;52.108;19.942;2022-08-01T00:08:07;14.90;;;6.50;;
60919;SDS011;59039;52.108;19.942;2022-08-01T00:10:35;12.50;;;6.20;;
60919;SDS011;59039;52.108;19.942;2022-08-01T00:13:00;8.70;;;6.30;;
60919;SDS011;59039;52.108;19.942;2022-08-01T00:15:25;10.90;;;6.50;;
60919;SDS011;59039;52.108;19.942;2022-08-01T00:17:50;14.30;;;6.30;;
60919;SDS011;59039;52.108;19.942;2022-08-01T00:20:16;10.40;;;6.90;;
60919;SDS011;59039;52.108;19.942;2022-08-01T00:22:41;12.90;;;6.10;;
60919;SDS011;59039;52.108;19.942;2022-08-01T00:25:06;10.50;;;5.90;;
60919;SDS011;59039;52.108;19.942;2022-08-01T00:27:41;16.80;;;5.90;;
60919;SDS011;59039;52.108;19.942;2022-08-01T00:30:07;10.60;;;6.10;;
60919;SDS011;59039;52.108;19.942;2022-08-01T00:32:32;12.10;;;6.00;;
60919;SDS011;59039;52.108;19.942;2022-08-01T00:34:57;6.60;;;5.70;;
60919;SDS011;59039;52.108;19.942;2022-08-01T00:37:23;14.40;;;6.00;;
60919;SDS011;59039;52.108;19.942;2022-08-01T00:39:48;10.40;;;5.90;;
60919;SDS011;59039;52.108;19.942;2022-08-01T00:42:13;15.30;;;5.80;;
60919;SDS011;59039;52.108;19.942;2022-08-01T00:44:48;10.30;;;5.90;;
60919;SDS011;59039;52.108;19.942;2022-08-01T00:47:13;11.10;;;5.70;;
60919;SDS011;59039;52.108;19.942;2022-08-01T00:49:38;11.00;;;5.30;;
60919;SDS011;59039;52.108;19.942;2022-08-01T00:52:04;9.60;;;5.70;;
60919;SDS011;59039;52.108;19.942;2022-08-01T00:54:30;9.20;;;5.70;;
60919;SDS011;59039;52.108;19.942;2022-08-01T00:56:56;11.00;;;6.50;;
60919;SDS011;59039;52.108;19.942;2022-08-01T00:59:22;8.60;;;5.90;;
60919;SDS011;59039;52.108;19.942;2022-08-01T01:01:51;6.70;;;5.80;;
60919;SDS011;59039;52.108;19.942;2022-08-01T01:04:17;8.10;;;5.80;;
60919;SDS011;59039;52.108;19.942;2022-08-01T01:09:18;11.20;;;5.80;;
60919;SDS011;59039;52.108;19.942;2022-08-01T01:15:02;7.90;;;5.60;;
60919;SDS011;59039;52.108;19.942;2022-08-01T01:17:41;7.80;;;5.00;;
60919;SDS011;59039;52.108;19.942;2022-08-01T01:20:12;9.10;;;6.60;;
60919;SDS011;59039;52.108;19.942;2022-08-01T01:28:04;8.60;;;5.40;;
60919;SDS011;59039;52.108;19.942;2022-08-01T01:30:41;7.70;;;5.30;;
60919;SDS011;59039;52.108;19.942;2022-08-01T01:33:10;8.80;;;5.30;;
60919;SDS011;59039;52.108;19.942;2022-08-01T01:35:39;7.40;;;5.10;;
60919;SDS011;59039;52.108;19.942;2022-08-01T01:38:20;10.80;;;5.50;;
60919;SDS011;59039;52.108;19.942;2022-08-01T01:40:50;8.10;;;5.80;;
60919;SDS011;59039;52.108;19.942;2022-08-01T01:43:18;8.80;;;6.10;;
60919;SDS011;59039;52.108;19.942;2022-08-01T01:45:45;9.00;;;5.90;;
60919;SDS011;59039;52.108;19.942;2022-08-01T01:48:13;8.10;;;5.80;;
60919;SDS011;59039;52.108;19.942;2022-08-01T01:50:42;8.10;;;5.60;;
60919;SDS011;59039;52.108;19.942;2022-08-01T01:53:10;8.00;;;5.90;;
60919;SDS011;59039;52.108;19.942;2022-08-01T01:55:38;10.00;;;5.80;;
60919;SDS011;59039;52.108;19.942;2022-08-01T01:58:06;12.00;;;6.30;;
60919;SDS011;59039;52.108;19.942;2022-08-01T02:00:33;15.50;;;6.10;;
60919;SDS011;59039;52.108;19.942;2022-08-01T02:03:02;9.80;;;6.10;;
60919;SDS011;59039;52.108;19.942;2022-08-01T02:05:29;10.60;;;6.60;;
60919;SDS011;59039;52.108;19.942;2022-08-01T02:07:55;10.60;;;6.60;;
60919;SDS011;59039;52.108;19.942;2022-08-01T02:10:22;10.70;;;6.30;;
60919;SDS011;59039;52.108;19.942;2022-08-01T02:12:52;9.20;;;6.30;;
60919;SDS011;59039;52.108;19.942;2022-08-01T02:15:18;9.40;;;6.50;;
60919;SDS011;59039;52.108;19.942;2022-08-01T02:17:46;9.90;;;6.10;;
60919;SDS011;59039;52.108;19.942;2022-08-01T02:20:14;8.80;;;6.10;;
60919;SDS011;59039;52.108;19.942;2022-08-01T02:22:42;7.90;;;6.20;;
60919;SDS011;59039;52.108;19.942;2022-08-01T02:25:22;11.80;;;6.60;;
60919;SDS011;59039;52.108;19.942;2022-08-01T02:30:34;11.10;;;6.40;;
60919;SDS011;59039;52.108;19.942;2022-08-01T02:33:05;11.40;;;6.90;;
60919;SDS011;59039;52.108;19.942;2022-08-01T02:35:43;10.40;;;7.00;;
60919;SDS011;59039;52.108;19.942;2022-08-01T02:38:11;12.90;;;6.50;;
60919;SDS011;59039;52.108;19.942;2022-08-01T02:40:39;13.30;;;6.70;;
60919;SDS011;59039;52.108;19.942;2022-08-01T02:43:08;9.70;;;7.10;;
60919;SDS011;59039;52.108;19.942;2022-08-01T02:45:37;9.20;;;6.90;;
60919;SDS011;59039;52.108;19.942;2022-08-01T02:48:08;14.30;;;7.40;;
60919;SDS011;59039;52.108;19.942;2022-08-01T02:50:37;10.90;;;6.40;;
60919;SDS011;59039;52.108;19.942;2022-08-01T02:53:07;10.00;;;7.10;;
60919;SDS011;59039;52.108;19.942;2022-08-01T02:55:34;10.50;;;7.30;;
60919;SDS011;59039;52.108;19.942;2022-08-01T02:58:00;14.10;;;7.20;;
60919;SDS011;59039;52.108;19.942;2022-08-01T03:00:28;11.30;;;7.40;;
60919;SDS011;59039;52.108;19.942;2022-08-01T03:02:56;9.90;;;7.10;;
60919;SDS011;59039;52.108;19.942;2022-08-01T03:05:25;13.40;;;7.80;;
60919;SDS011;59039;52.108;19.942;2022-08-01T03:07:52;12.30;;;7.30;;
60919;SDS011;59039;52.108;19.942;2022-08-01T03:10:29;11.00;;;7.50;;
60919;SDS011;59039;52.108;19.942;2022-08-01T03:12:56;9.30;;;7.80;;
60919;SDS011;59039;52.108;19.942;2022-08-01T03:15:24;11.50;;;7.80;;
60919;SDS011;59039;52.108;19.942;2022-08-01T03:17:52;9.80;;;7.60;;
60919;SDS011;59039;52.108;19.942;2022-08-01T03:20:27;9.90;;;7.20;;
60919;SDS011;59039;52.108;19.942;2022-08-01T03:22:55;15.30;;;8.10;;
60919;SDS011;59039;52.108;19.942;2022-08-01T03:25:22;12.90;;;8.50;;
60919;SDS011;59039;52.108;19.942;2022-08-01T03:27:51;9.20;;;7.90;;
60919;SDS011;59039;52.108;19.942;2022-08-01T03:30:20;11.90;;;8.50;;
60919;SDS011;59039;52.108;19.942;2022-08-01T03:32:48;9.80;;;8.00;;
60919;SDS011;59039;52.108;19.942;2022-08-01T03:37:59;12.50;;;8.30;;
60919;SDS011;59039;52.108;19.942;2022-08-01T03:40:39;10.70;;;7.90;;
60919;SDS011;59039;52.108;19.942;2022-08-01T03:45:41;12.40;;;9.20;;
60919;SDS011;59039;52.108;19.942;2022-08-01T03:48:14;11.90;;;8.50;;
60919;SDS011;59039;52.108;19.942;2022-08-01T03:50:43;11.70;;;8.80;;
60919;SDS011;59039;52.108;19.942;2022-08-01T03:53:12;10.30;;;8.10;;
60919;SDS011;59039;52.108;19.942;2022-08-01T03:55:39;10.60;;;8.50;;
60919;SDS011;59039;52.108;19.942;2022-08-01T03:58:09;12.30;;;8.30;;
60919;SDS011;59039;52.108;19.942;2022-08-01T04:00:36;11.90;;;8.60;;
60919;SDS011;59039;52.108;19.942;2022-08-01T04:03:03;13.90;;;8.00;;
60919;SDS011;59039;52.108;19.942;2022-08-01T04:05:29;17.00;;;9.00;;
60919;SDS011;59039;52.108;19.942;2022-08-01T04:07:54;14.10;;;8.90;;
60919;SDS011;59039;52.108;19.942;2022-08-01T04:10:19;15.00;;;9.30;;
60919;SDS011;59039;52.108;19.942;2022-08-01T04:12:44;13.00;;;9.20;;
60919;SDS011;59039;52.108;19.942;2022-08-01T04:15:10;15.50;;;9.50;;
60919;SDS011;59039;52.108;19.942;2022-08-01T04:17:35;11.70;;;9.50;;
60919;SDS011;59039;52.108;19.942;2022-08-01T04:20:00;14.90;;;9.30;;
60919;SDS011;59039;52.108;19.942;2022-08-01T04:22:26;10.80;;;8.50;;
60919;SDS011;59039;52.108;19.942;2022-08-01T04:24:52;12.70;;;9.10;;
60919;SDS011;59039;52.108;19.942;2022-08-01T04:27:25;13.00;;;9.10;;
60919;SDS011;59039;52.108;19.942;2022-08-01T04:29:54;10.70;;;8.60;;
60919;SDS011;59039;52.108;19.942;2022-08-01T04:32:22;12.50;;;8.90;;
60919;SDS011;59039;52.108;19.942;2022-08-01T04:34:50;11.20;;;8.60;;
60919;SDS011;59039;52.108;19.942;2022-08-01T04:37:16;12.80;;;9.20;;
60919;SDS011;59039;52.108;19.942;2022-08-01T04:39:42;11.40;;;8.60;;
60919;SDS011;59039;52.108;19.942;2022-08-01T04:42:10;10.70;;;8.70;;
60919;SDS011;59039;52.108;19.942;2022-08-01T04:44:37;12.70;;;8.50;;
60919;SDS011;59039;52.108;19.942;2022-08-01T04:47:02;12.00;;;8.60;;
60919;SDS011;59039;52.108;19.942;2022-08-01T04:49:32;12.50;;;8.60;;
60919;SDS011;59039;52.108;19.942;2022-08-01T04:51:58;13.10;;;8.70;;
60919;SDS011;59039;52.108;19.942;2022-08-01T04:54:26;12.10;;;8.50;;
60919;SDS011;59039;52.108;19.942;2022-08-01T04:56:53;11.50;;;8.30;;
60919;SDS011;59039;52.108;19.942;2022-08-01T04:59:19;11.50;;;8.10;;
60919;SDS011;59039;52.108;19.942;2022-08-01T05:01:47;16.60;;;8.70;;
60919;SDS011;59039;52.108;19.942;2022-08-01T05:04:13;11.30;;;9.20;;
60919;SDS011;59039;52.108;19.942;2022-08-01T05:06:38;16.70;;;9.40;;
60919;SDS011;59039;52.108;19.942;2022-08-01T05:09:04;11.60;;;7.80;;
60919;SDS011;59039;52.108;19.942;2022-08-01T05:11:29;9.90;;;7.80;;
60919;SDS011;59039;52.108;19.942;2022-08-01T05:13:54;10.00;;;7.70;;
60919;SDS011;59039;52.108;19.942;2022-08-01T05:16:19;12.00;;;8.10;;
60919;SDS011;59039;52.108;19.942;2022-08-01T05:18:44;14.90;;;8.30;;
60919;SDS011;59039;52.108;19.942;2022-08-01T05:21:10;11.40;;;8.20;;
60919;SDS011;59039;52.108;19.942;2022-08-01T05:23:35;10.60;;;8.60;;
60919;SDS011;59039;52.108;19.942;2022-08-01T05:26:00;9.60;;;7.60;;
60919;SDS011;59039;52.108;19.942;2022-08-01T05:28:26;13.40;;;8.30;;
60919;SDS011;59039;52.108;19.942;2022-08-01T05:30:51;9.40;;;8.10;;
60919;SDS011;59039;52.108;19.942;2022-08-01T05:33:16;10.10;;;8.30;;
60919;SDS011;59039;52.108;19.942;2022-08-01T05:35:44;12.10;;;8.30;;
60919;SDS011;59039;52.108;19.942;2022-08-01T05:38:09;13.80;;;8.50;;
60919;SDS011;59039;52.108;19.942;2022-08-01T05:40:35;12.40;;;8.40;;
60919;SDS011;59039;52.108;19.942;2022-08-01T05:43:00;14.30;;;7.90;;
60919;SDS011;59039;52.108;19.942;2022-08-01T05:45:25;10.90;;;7.90;;
60919;SDS011;59039;52.108;19.942;2022-08-01T05:47:51;10.70;;;7.80;;
60919;SDS011;59039;52.108;19.942;2022-08-01T05:50:16;10.60;;;7.50;;
60919;SDS011;59039;52.108;19.942;2022-08-01T05:52:41;10.50;;;8.00;;
60919;SDS011;59039;52.108;19.942;2022-08-01T05:55:07;11.20;;;8.20;;
60919;SDS011;59039;52.108;19.942;2022-08-01T05:57:42;11.10;;;7.60;;
60919;SDS011;59039;52.108;19.942;2022-08-01T06:00:07;9.80;;;7.70;;
60919;SDS011;59039;52.108;19.942;2022-08-01T06:02:33;10.10;;;7.00;;
60919;SDS011;59039;52.108;19.942;2022-08-01T06:04:58;11.20;;;7.70;;
60919;SDS011;59039;52.108;19.942;2022-08-01T06:07:24;11.80;;;7.40;;
60919;SDS011;59039;52.108;19.942;2022-08-01T06:09:49;11.30;;;6.90;;
60919;SDS011;59039;52.108;19.942;2022-08-01T06:12:15;11.00;;;7.10;;
60919;SDS011;59039;52.108;19.942;2022-08-01T06:14:43;10.70;;;6.70;;
60919;SDS011;59039;52.108;19.942;2022-08-01T06:17:08;10.60;;;6.80;;
60919;SDS011;59039;52.108;19.942;2022-08-01T06:19:33;8.40;;;6.10;;
60919;SDS011;59039;52.108;19.942;2022-08-01T06:21:59;9.00;;;6.80;;
60919;SDS011;59039;52.108;19.942;2022-08-01T06:24:24;7.80;;;6.40;;
60919;SDS011;59039;52.108;19.942;2022-08-01T06:26:49;9.20;;;6.70;;
60919;SDS011;59039;52.108;19.942;2022-08-01T06:29:15;8.10;;;5.80;;
60919;SDS011;59039;52.108;19.942;2022-08-01T06:31:40;11.00;;;6.40;;
60919;SDS011;59039;52.108;19.942;2022-08-01T06:34:05;8.90;;;6.40;;
60919;SDS011;59039;52.108;19.942;2022-08-01T06:36:30;7.70;;;6.30;;
60919;SDS011;59039;52.108;19.942;2022-08-01T06:38:56;12.00;;;6.20;;
60919;SDS011;59039;52.108;19.942;2022-08-01T06:41:21;7.60;;;6.30;;
60919;SDS011;59039;52.108;19.942;2022-08-01T06:43:47;10.00;;;5.90;;
60919;SDS011;59039;52.108;19.942;2022-08-01T06:46:12;10.30;;;5.70;;
60919;SDS011;59039;52.108;19.942;2022-08-01T06:48:37;8.80;;;5.70;;
60919;SDS011;59039;52.108;19.942;2022-08-01T06:51:02;8.30;;;5.80;;
60919;SDS011;59039;52.108;19.942;2022-08-01T06:53:28;9.40;;;5.40;;
60919;SDS011;59039;52.108;19.942;2022-08-01T06:55:53;7.30;;;5.10;;
60919;SDS011;59039;52.108;19.942;2022-08-01T06:58:18;7.80;;;5.10;;
60919;SDS011;59039;52.108;19.942;2022-08-01T07:00:43;7.20;;;4.60;;
60919;SDS011;59039;52.108;19.942;2022-08-01T07:03:08;8.10;;;5.40;;
60919;SDS011;59039;52.108;19.942;2022-08-01T07:05:34;7.50;;;4.60;;
60919;SDS011;59039;52.108;19.942;2022-08-01T07:07:59;5.70;;;4.20;;
60919;SDS011;59039;52.108;19.942;2022-08-01T07:10:24;8.80;;;4.00;;
60919;SDS011;59039;52.108;19.942;2022-08-01T07:12:49;5.60;;;3.80;;
60919;SDS011;59039;52.108;19.942;2022-08-01T07:15:15;7.50;;;3.90;;
60919;SDS011;59039;52.108;19.942;2022-08-01T07:17:40;5.50;;;3.80;;
60919;SDS011;59039;52.108;19.942;2022-08-01T07:20:10;4.50;;;4.00;;
60919;SDS011;59039;52.108;19.942;2022-08-01T07:22:37;5.20;;;3.60;;
60919;SDS011;59039;52.108;19.942;2022-08-01T07:25:03;5.50;;;3.40;;
60919;SDS011;59039;52.108;19.942;2022-08-01T07:27:29;6.50;;;4.10;;
60919;SDS011;59039;52.108;19.942;2022-08-01T07:29:55;6.80;;;3.90;;
60919;SDS011;59039;52.108;19.942;2022-08-01T07:32:20;6.10;;;3.90;;
60919;SDS011;59039;52.108;19.942;2022-08-01T07:34:45;5.40;;;3.90;;
60919;SDS011;59039;52.108;19.942;2022-08-01T07:37:10;10.40;;;3.70;;
60919;SDS011;59039;52.108;19.942;2022-08-01T07:39:36;4.00;;;3.40;;
60919;SDS011;59039;52.108;19.942;2022-08-01T07:42:01;6.30;;;3.60;;
60919;SDS011;59039;52.108;19.942;2022-08-01T07:44:26;5.30;;;3.90;;
60919;SDS011;59039;52.108;19.942;2022-08-01T07:46:51;6.10;;;3.90;;
60919;SDS011;59039;52.108;19.942;2022-08-01T07:49:17;6.20;;;3.60;;
60919;SDS011;59039;52.108;19.942;2022-08-01T07:51:42;6.10;;;3.30;;
60919;SDS011;59039;52.108;19.942;2022-08-01T07:54:07;4.70;;;3.90;;
60919;SDS011;59039;52.108;19.942;2022-08-01T07:56:32;6.30;;;3.30;;
60919;SDS011;59039;52.108;19.942;2022-08-01T07:58:58;4.90;;;3.40;;
60919;SDS011;59039;52.108;19.942;2022-08-01T08:01:23;4.60;;;3.70;;
60919;SDS011;59039;52.108;19.942;2022-08-01T08:03:48;8.30;;;3.70;;
60919;SDS011;59039;52.108;19.942;2022-08-01T08:06:13;4.40;;;3.70;;
60919;SDS011;59039;52.108;19.942;2022-08-01T08:08:38;5.80;;;3.70;;
60919;SDS011;59039;52.108;19.942;2022-08-01T08:11:04;5.70;;;3.90;;
60919;SDS011;59039;52.108;19.942;2022-08-01T08:13:29;5.80;;;3.70;;
60919;SDS011;59039;52.108;19.942;2022-08-01T08:15:54;5.30;;;3.80;;
60919;SDS011;59039;52.108;19.942;2022-08-01T08:18:19;6.00;;;3.60;;
60919;SDS011;59039;52.108;19.942;2022-08-01T08:20:45;5.30;;;4.00;;
60919;SDS011;59039;52.108;19.942;2022-08-01T08:23:10;6.40;;;4.00;;
60919;SDS011;59039;52.108;19.942;2022-08-01T08:25:35;7.30;;;3.90;;
60919;SDS011;59039;52.108;19.942;2022-08-01T08:28:01;7.30;;;3.60;;
60919;SDS011;59039;52.108;19.942;2022-08-01T08:30:26;5.80;;;3.80;;
60919;SDS011;59039;52.108;19.942;2022-08-01T08:32:51;5.50;;;3.80;;
60919;SDS011;59039;52.108;19.942;2022-08-01T08:35:16;5.80;;;3.50;;
60919;SDS011;59039;52.108;19.942;2022-08-01T08:37:42;7.20;;;3.90;;
60919;SDS011;59039;52.108;19.942;2022-08-01T08:40:07;5.10;;;3.70;;
60919;SDS011;59039;52.108;19.942;2022-08-01T08:42:33;5.80;;;3.80;;
60919;SDS011;59039;52.108;19.942;2022-08-01T08:44:59;7.60;;;4.10;;
60919;SDS011;59039;52.108;19.942;2022-08-01T08:47:24;6.90;;;3.70;;
60919;SDS011;59039;52.108;19.942;2022-08-01T08:49:52;6.30;;;4.10;;
60919;SDS011;59039;52.108;19.942;2022-08-01T08:52:20;7.60;;;3.70;;
60919;SDS011;59039;52.108;19.942;2022-08-01T08:54:47;6.10;;;3.30;;
60919;SDS011;59039;52.108;19.942;2022-08-01T08:57:14;4.80;;;3.90;;
60919;SDS011;59039;52.108;19.942;2022-08-01T08:59:40;8.40;;;3.80;;
60919;SDS011;59039;52.108;19.942;2022-08-01T09:02:07;7.90;;;4.10;;
60919;SDS011;59039;52.108;19.942;2022-08-01T09:04:33;5.20;;;3.70;;
60919;SDS011;59039;52.108;19.942;2022-08-01T09:06:58;5.70;;;3.60;;
60919;SDS011;59039;52.108;19.942;2022-08-01T09:09:23;4.30;;;3.20;;
60919;SDS011;59039;52.108;19.942;2022-08-01T09:11:48;4.70;;;3.60;;
60919;SDS011;59039;52.108;19.942;2022-08-01T09:14:15;4.70;;;4.10;;
60919;SDS011;59039;52.108;19.942;2022-08-01T09:16:43;9.00;;;3.80;;
60919;SDS011;59039;52.108;19.942;2022-08-01T09:19:16;6.30;;;3.70;;
60919;SDS011;59039;52.108;19.942;2022-08-01T09:21:59;6.60;;;3.70;;
60919;SDS011;59039;52.108;19.942;2022-08-01T09:26:52;6.10;;;3.70;;
60919;SDS011;59039;52.108;19.942;2022-08-01T09:29:19;4.90;;;4.00;;
60919;SDS011;59039;52.108;19.942;2022-08-01T09:31:46;6.40;;;3.40;;
60919;SDS011;59039;52.108;19.942;2022-08-01T09:34:12;5.50;;;3.70;;
60919;SDS011;59039;52.108;19.942;2022-08-01T09:36:45;7.70;;;4.10;;
60919;SDS011;59039;52.108;19.942;2022-08-01T09:39:19;6.00;;;3.70;;
60919;SDS011;59039;52.108;19.942;2022-08-01T09:41:47;4.30;;;3.40;;
60919;SDS011;59039;52.108;19.942;2022-08-01T09:44:13;5.70;;;3.40;;
60919;SDS011;59039;52.108;19.942;2022-08-01T09:46:49;6.80;;;3.50;;
60919;SDS011;59039;52.108;19.942;2022-08-01T09:49:32;4.50;;;3.30;;
60919;SDS011;59039;52.108;19.942;2022-08-01T09:52:09;3.80;;;3.40;;
60919;SDS011;59039;52.108;19.942;2022-08-01T09:54:39;4.00;;;3.00;;
60919;SDS011;59039;52.108;19.942;2022-08-01T09:57:12;3.90;;;3.20;;
60919;SDS011;59039;52.108;19.942;2022-08-01T09:59:41;4.60;;;3.40;;
60919;SDS011;59039;52.108;19.942;2022-08-01T10:02:09;6.20;;;3.70;;
60919;SDS011;59039;52.108;19.942;2022-08-01T10:04:36;4.80;;;3.30;;
60919;SDS011;59039;52.108;19.942;2022-08-01T10:07:07;7.90;;;3.70;;
60919;SDS011;59039;52.108;19.942;2022-08-01T10:09:34;4.50;;;3.10;;
60919;SDS011;59039;52.108;19.942;2022-08-01T10:12:01;5.80;;;3.50;;
60919;SDS011;59039;52.108;19.942;2022-08-01T10:14:28;4.50;;;3.10;;
60919;SDS011;59039;52.108;19.942;2022-08-01T10:16:55;5.40;;;3.10;;
60919;SDS011;59039;52.108;19.942;2022-08-01T10:19:23;7.00;;;3.20;;
60919;SDS011;59039;52.108;19.942;2022-08-01T10:21:50;8.90;;;3.30;;
60919;SDS011;59039;52.108;19.942;2022-08-01T10:24:17;4.90;;;3.30;;
60919;SDS011;59039;52.108;19.942;2022-08-01T10:26:44;6.90;;;3.20;;
60919;SDS011;59039;52.108;19.942;2022-08-01T10:29:13;5.00;;;3.40;;
60919;SDS011;59039;52.108;19.942;2022-08-01T10:31:40;4.00;;;3.20;;
60919;SDS011;59039;52.108;19.942;2022-08-01T10:34:06;5.40;;;2.70;;
60919;SDS011;59039;52.108;19.942;2022-08-01T10:36:31;6.30;;;3.10;;
60919;SDS011;59039;52.108;19.942;2022-08-01T10:38:57;4.40;;;2.60;;
60919;SDS011;59039;52.108;19.942;2022-08-01T10:41:23;4.10;;;2.90;;
60919;SDS011;59039;52.108;19.942;2022-08-01T10:43:49;4.40;;;2.90;;
60919;SDS011;59039;52.108;19.942;2022-08-01T10:46:14;6.10;;;3.10;;
60919;SDS011;59039;52.108;19.942;2022-08-01T10:48:46;5.10;;;3.00;;
60919;SDS011;59039;52.108;19.942;2022-08-01T10:51:15;7.50;;;3.10;;
60919;SDS011;59039;52.108;19.942;2022-08-01T10:53:48;5.00;;;3.00;;
60919;SDS011;59039;52.108;19.942;2022-08-01T10:56:16;4.90;;;2.90;;
60919;SDS011;59039;52.108;19.942;2022-08-01T10:58:41;6.00;;;3.20;;
60919;SDS011;59039;52.108;19.942;2022-08-01T11:01:18;4.50;;;2.80;;
60919;SDS011;59039;52.108;19.942;2022-08-01T11:06:35;3.90;;;2.90;;
60919;SDS011;59039;52.108;19.942;2022-08-01T11:14:24;3.40;;;2.70;;
60919;SDS011;59039;52.108;19.942;2022-08-01T11:16:50;4.30;;;3.10;;
60919;SDS011;59039;52.108;19.942;2022-08-01T11:19:15;3.90;;;3.20;;
60919;SDS011;59039;52.108;19.942;2022-08-01T11:27:20;7.00;;;3.10;;
60919;SDS011;59039;52.108;19.942;2022-08-01T11:30:33;5.80;;;3.40;;
60919;SDS011;59039;52.108;19.942;2022-08-01T11:35:21;4.50;;;3.20;;
60919;SDS011;59039;52.108;19.942;2022-08-01T11:37:47;4.10;;;3.00;;
60919;SDS011;59039;52.108;19.942;2022-08-01T11:40:20;4.40;;;3.20;;
60919;SDS011;59039;52.108;19.942;2022-08-01T11:42:46;5.80;;;3.50;;
60919;SDS011;59039;52.108;19.942;2022-08-01T11:48:33;6.00;;;3.50;;
60919;SDS011;59039;52.108;19.942;2022-08-01T11:50:58;5.90;;;3.30;;
60919;SDS011;59039;52.108;19.942;2022-08-01T11:53:23;4.20;;;3.30;;
60919;SDS011;59039;52.108;19.942;2022-08-01T11:55:52;3.60;;;3.10;;
60919;SDS011;59039;52.108;19.942;2022-08-01T11:58:22;3.50;;;2.90;;
60919;SDS011;59039;52.108;19.942;2022-08-01T12:00:52;5.10;;;3.30;;
60919;SDS011;59039;52.108;19.942;2022-08-01T12:05:51;6.10;;;3.50;;
60919;SDS011;59039;52.108;19.942;2022-08-01T12:08:32;6.00;;;3.60;;
60919;SDS011;59039;52.108;19.942;2022-08-01T12:10:58;5.60;;;3.60;;
60919;SDS011;59039;52.108;19.942;2022-08-01T12:13:24;6.70;;;3.60;;
60919;SDS011;59039;52.108;19.942;2022-08-01T12:15:49;4.90;;;3.30;;
60919;SDS011;59039;52.108;19.942;2022-08-01T12:18:15;5.80;;;3.50;;
60919;SDS011;59039;52.108;19.942;2022-08-01T12:20:42;3.90;;;3.40;;
60919;SDS011;59039;52.108;19.942;2022-08-01T12:23:09;5.50;;;3.70;;
60919;SDS011;59039;52.108;19.942;2022-08-01T12:25:40;6.10;;;3.80;;
60919;SDS011;59039;52.108;19.942;2022-08-01T12:28:06;5.30;;;3.60;;
60919;SDS011;59039;52.108;19.942;2022-08-01T12:30:34;5.90;;;3.40;;
60919;SDS011;59039;52.108;19.942;2022-08-01T12:33:00;4.40;;;3.30;;
60919;SDS011;59039;52.108;19.942;2022-08-01T12:35:30;4.60;;;3.20;;
60919;SDS011;59039;52.108;19.942;2022-08-01T12:37:56;8.40;;;3.50;;
60919;SDS011;59039;52.108;19.942;2022-08-01T12:40:27;6.00;;;3.80;;
60919;SDS011;59039;52.108;19.942;2022-08-01T12:43:01;5.70;;;3.50;;
60919;SDS011;59039;52.108;19.942;2022-08-01T12:45:33;4.80;;;3.40;;
60919;SDS011;59039;52.108;19.942;2022-08-01T12:47:59;4.70;;;3.40;;
60919;SDS011;59039;52.108;19.942;2022-08-01T12:50:26;5.10;;;3.40;;
60919;SDS011;59039;52.108;19.942;2022-08-01T12:52:54;4.40;;;3.30;;
60919;SDS011;59039;52.108;19.942;2022-08-01T12:55:21;5.50;;;3.80;;
60919;SDS011;59039;52.108;19.942;2022-08-01T12:57:48;4.60;;;3.50;;
60919;SDS011;59039;52.108;19.942;2022-08-01T13:03:01;5.80;;;3.50;;
60919;SDS011;59039;52.108;19.942;2022-08-01T13:05:31;6.90;;;3.50;;
60919;SDS011;59039;52.108;19.942;2022-08-01T13:08:09;5.70;;;3.40;;
60919;SDS011;59039;52.108;19.942;2022-08-01T13:10:35;3.70;;;3.10;;
60919;SDS011;59039;52.108;19.942;2022-08-01T13:13:00;5.20;;;3.80;;
60919;SDS011;59039;52.108;19.942;2022-08-01T13:15:27;5.40;;;3.60;;
60919;SDS011;59039;52.108;19.942;2022-08-01T13:17:54;5.20;;;3.70;;
60919;SDS011;59039;52.108;19.942;2022-08-01T13:20:30;4.30;;;3.50;;
60919;SDS011;59039;52.108;19.942;2022-08-01T13:23:19;6.20;;;3.90;;
60919;SDS011;59039;52.108;19.942;2022-08-01T13:25:51;6.40;;;3.80;;
60919;SDS011;59039;52.108;19.942;2022-08-01T13:28:19;4.30;;;3.30;;
60919;SDS011;59039;52.108;19.942;2022-08-01T13:30:56;5.40;;;3.50;;
60919;SDS011;59039;52.108;19.942;2022-08-01T13:33:26;10.50;;;3.90;;
60919;SDS011;59039;52.108;19.942;2022-08-01T13:35:53;5.90;;;3.50;;
60919;SDS011;59039;52.108;19.942;2022-08-01T13:38:20;5.30;;;3.10;;
60919;SDS011;59039;52.108;19.942;2022-08-01T13:40:46;4.60;;;3.50;;
60919;SDS011;59039;52.108;19.942;2022-08-01T13:43:11;4.60;;;3.80;;
60919;SDS011;59039;52.108;19.942;2022-08-01T13:45:36;3.70;;;3.20;;
60919;SDS011;59039;52.108;19.942;2022-08-01T13:48:01;4.80;;;3.30;;
60919;SDS011;59039;52.108;19.942;2022-08-01T13:50:30;5.70;;;3.60;;
60919;SDS011;59039;52.108;19.942;2022-08-01T13:52:55;4.00;;;3.30;;
60919;SDS011;59039;52.108;19.942;2022-08-01T13:55:20;4.70;;;3.10;;
60919;SDS011;59039;52.108;19.942;2022-08-01T13:57:45;5.80;;;3.80;;
60919;SDS011;59039;52.108;19.942;2022-08-01T14:00:11;5.10;;;3.30;;
60919;SDS011;59039;52.108;19.942;2022-08-01T14:02:37;6.90;;;3.40;;
60919;SDS011;59039;52.108;19.942;2022-08-01T14:05:02;4.70;;;3.40;;
60919;SDS011;59039;52.108;19.942;2022-08-01T14:07:28;4.50;;;3.30;;
60919;SDS011;59039;52.108;19.942;2022-08-01T14:09:53;3.80;;;3.20;;
60919;SDS011;59039;52.108;19.942;2022-08-01T14:12:18;4.70;;;3.50;;
60919;SDS011;59039;52.108;19.942;2022-08-01T14:14:44;6.50;;;3.90;;
60919;SDS011;59039;52.108;19.942;2022-08-01T14:17:09;5.80;;;3.30;;
60919;SDS011;59039;52.108;19.942;2022-08-01T14:19:34;4.10;;;3.50;;
60919;SDS011;59039;52.108;19.942;2022-08-01T14:22:00;5.00;;;3.30;;
60919;SDS011;59039;52.108;19.942;2022-08-01T14:24:25;5.10;;;3.80;;
60919;SDS011;59039;52.108;19.942;2022-08-01T14:26:50;5.00;;;3.70;;
60919;SDS011;59039;52.108;19.942;2022-08-01T14:29:15;6.10;;;4.00;;
60919;SDS011;59039;52.108;19.942;2022-08-01T14:31:41;5.90;;;4.10;;
60919;SDS011;59039;52.108;19.942;2022-08-01T14:34:06;4.90;;;3.40;;
60919;SDS011;59039;52.108;19.942;2022-08-01T14:36:31;5.40;;;3.60;;
60919;SDS011;59039;52.108;19.942;2022-08-01T14:38:57;4.70;;;3.80;;
60919;SDS011;59039;52.108;19.942;2022-08-01T14:41:23;6.40;;;3.70;;
60919;SDS011;59039;52.108;19.942;2022-08-01T14:43:49;7.80;;;3.60;;
60919;SDS011;59039;52.108;19.942;2022-08-01T14:46:14;5.20;;;3.60;;
60919;SDS011;59039;52.108;19.942;2022-08-01T14:48:39;4.40;;;3.60;;
60919;SDS011;59039;52.108;19.942;2022-08-01T14:51:05;5.20;;;3.60;;
60919;SDS011;59039;52.108;19.942;2022-08-01T14:53:30;5.50;;;3.80;;
60919;SDS011;59039;52.108;19.942;2022-08-01T14:55:56;4.40;;;3.30;;
60919;SDS011;59039;52.108;19.942;2022-08-01T14:58:21;4.30;;;3.90;;
60919;SDS011;59039;52.108;19.942;2022-08-01T15:00:46;7.40;;;4.00;;
60919;SDS011;59039;52.108;19.942;2022-08-01T15:03:12;5.40;;;4.00;;
60919;SDS011;59039;52.108;19.942;2022-08-01T15:05:37;6.00;;;3.80;;
60919;SDS011;59039;52.108;19.942;2022-08-01T15:08:03;5.40;;;4.10;;
60919;SDS011;59039;52.108;19.942;2022-08-01T15:10:30;5.20;;;3.70;;
60919;SDS011;59039;52.108;19.942;2022-08-01T15:12:55;5.60;;;4.00;;
60919;SDS011;59039;52.108;19.942;2022-08-01T15:15:21;5.70;;;4.00;;
60919;SDS011;59039;52.108;19.942;2022-08-01T15:17:46;5.00;;;3.60;;